sensor_id;sensor_type;location;lat;lon;timestamp;temperature;humidity
1994;DHT22;998;49.906;10.908;2024-03-08T00:00:22;3.90;99.90
1994;DHT22;998;49.906;10.908;2024-03-08T00:02:50;4.10;99.90
1994;DHT22;998;49.906;10.908;2024-03-08T00:05:17;4.10;99.90
1994;DHT22;998;49.906;10.908;2024-03-08T00:07:45;4.00;99.90
1994;DHT22;998;49.906;10.908;2024-03-08T00:10:14;4.00;99.90
1994;DHT22;998;49.906;10.908;2024-03-08T00:12:44;4.10;99.90
1994;DHT22;998;49.906;10.908;2024-03-08T00:15:13;4.10;99.90
1994;DHT22;998;49.906;10.908;2024-03-08T00:17:41;4.10;99.90
1994;DHT22;998;49.906;10.908;2024-03-08T00:20:08;4.00;99.90
1994;DHT22;998;49.906;10.908;2024-03-08T00:22:36;4.00;99.90
1994;DHT22;998;49.906;10.908;2024-03-08T00:25:04;4.00;99.90
1994;DHT22;998;49.906;10.908;2024-03-08T00:27:34;4.00;99.90
1994;DHT22;998;49.906;10.908;2024-03-08T00:30:02;4.00;99.90
1994;DHT22;998;49.906;10.908;2024-03-08T00:32:29;4.20;99.90
1994;DHT22;998;49.906;10.908;2024-03-08T00:34:57;4.00;99.90
1994;DHT22;998;49.906;10.908;2024-03-08T00:37:25;3.90;99.90
1994;DHT22;998;49.906;10.908;2024-03-08T00:39:52;3.90;99.90
1994;DHT22;998;49.906;10.908;2024-03-08T00:42:20;3.90;99.90
1994;DHT22;998;49.906;10.908;2024-03-08T00:44:49;3.90;99.90
1994;DHT22;998;49.906;10.908;2024-03-08T00:47:17;3.90;99.90
1994;DHT22;998;49.906;10.908;2024-03-08T00:49:44;4.10;99.90
1994;DHT22;998;49.906;10.908;2024-03-08T00:52:12;3.80;99.90
1994;DHT22;998;49.906;10.908;2024-03-08T00:54:40;3.80;99.90
1994;DHT22;998;49.906;10.908;2024-03-08T00:57:08;3.80;99.90
1994;DHT22;998;49.906;10.908;2024-03-08T00:59:38;3.90;99.90
1994;DHT22;998;49.906;10.908;2024-03-08T01:02:07;3.90;99.90
1994;DHT22;998;49.906;10.908;2024-03-08T01:04:34;3.80;99.90
1994;DHT22;998;49.906;10.908;2024-03-08T01:07:02;3.80;99.90
1994;DHT22;998;49.906;10.908;2024-03-08T01:09:29;3.70;99.90
1994;DHT22;998;49.906;10.908;2024-03-08T01:11:57;3.80;99.90
1994;DHT22;998;49.906;10.908;2024-03-08T01:14:25;3.70;99.90
1994;DHT22;998;49.906;10.908;2024-03-08T01:16:52;3.70;99.90
1994;DHT22;998;49.906;10.908;2024-03-08T01:19:22;3.60;99.90
1994;DHT22;998;49.906;10.908;2024-03-08T01:21:49;3.80;99.90
1994;DHT22;998;49.906;10.908;2024-03-08T01:24:17;3.80;99.90
1994;DHT22;998;49.906;10.908;2024-03-08T01:26:44;3.80;99.90
1994;DHT22;998;49.906;10.908;2024-03-08T01:29:12;3.90;99.90
1994;DHT22;998;49.906;10.908;2024-03-08T01:31:40;3.70;99.90
1994;DHT22;998;49.906;10.908;2024-03-08T01:34:07;3.70;99.90
1994;DHT22;998;49.906;10.908;2024-03-08T01:36:36;3.80;99.90
1994;DHT22;998;49.906;10.908;2024-03-08T01:39:04;3.80;99.90
1994;DHT22;998;49.906;10.908;2024-03-08T01:41:33;3.80;99.90
1994;DHT22;998;49.906;10.908;2024-03-08T01:44:01;3.80;99.90
1994;DHT22;998;49.906;10.908;2024-03-08T01:46:29;3.80;99.90
1994;DHT22;998;49.906;10.908;2024-03-08T01:48:57;3.90;99.90
1994;DHT22;998;49.906;10.908;2024-03-08T01:51:26;3.70;99.90
1994;DHT22;998;49.906;10.908;2024-03-08T01:53:57;3.70;99.90
1994;DHT22;998;49.906;10.908;2024-03-08T01:56:25;3.70;99.90
1994;DHT22;998;49.906;10.908;2024-03-08T01:58:52;3.70;99.90
1994;DHT22;998;49.906;10.908;2024-03-08T02:01:20;3.60;99.90
1994;DHT22;998;49.906;10.908;2024-03-08T02:03:49;3.40;99.90
1994;DHT22;998;49.906;10.908;2024-03-08T02:06:16;3.50;99.90
1994;DHT22;998;49.906;10.908;2024-03-08T02:08:44;3.50;99.90
1994;DHT22;998;49.906;10.908;2024-03-08T02:11:13;3.40;99.90
1994;DHT22;998;49.906;10.908;2024-03-08T02:13:41;3.40;99.90
1994;DHT22;998;49.906;10.908;2024-03-08T02:16:09;3.40;99.90
1994;DHT22;998;49.906;10.908;2024-03-08T02:18:36;3.30;99.90
1994;DHT22;998;49.906;10.908;2024-03-08T02:21:07;3.30;99.90
1994;DHT22;998;49.906;10.908;2024-03-08T02:23:34;3.30;99.90
1994;DHT22;998;49.906;10.908;2024-03-08T02:26:03;3.30;99.90
1994;DHT22;998;49.906;10.908;2024-03-08T02:28:31;3.10;99.90
1994;DHT22;998;49.906;10.908;2024-03-08T02:30:59;3.30;99.90
1994;DHT22;998;49.906;10.908;2024-03-08T02:33:28;3.40;99.90
1994;DHT22;998;49.906;10.908;2024-03-08T02:35:55;3.20;99.90
1994;DHT22;998;49.906;10.908;2024-03-08T02:38:24;3.20;99.90
1994;DHT22;998;49.906;10.908;2024-03-08T02:40:52;3.30;99.90
1994;DHT22;998;49.906;10.908;2024-03-08T02:43:21;3.30;99.90
1994;DHT22;998;49.906;10.908;2024-03-08T02:45:50;3.30;99.90
1994;DHT22;998;49.906;10.908;2024-03-08T02:48:19;3.30;99.90
1994;DHT22;998;49.906;10.908;2024-03-08T02:50:47;3.30;99.90
1994;DHT22;998;49.906;10.908;2024-03-08T02:53:16;3.30;99.90
1994;DHT22;998;49.906;10.908;2024-03-08T02:55:46;3.30;99.90
1994;DHT22;998;49.906;10.908;2024-03-08T02:58:13;3.30;99.90
1994;DHT22;998;49.906;10.908;2024-03-08T03:00:41;3.30;99.90
1994;DHT22;998;49.906;10.908;2024-03-08T03:03:09;3.30;99.90
1994;DHT22;998;49.906;10.908;2024-03-08T03:05:37;3.70;99.90
1994;DHT22;998;49.906;10.908;2024-03-08T03:08:07;3.40;99.90
1994;DHT22;998;49.906;10.908;2024-03-08T03:10:34;3.40;99.90
1994;DHT22;998;49.906;10.908;2024-03-08T03:13:04;3.30;99.90
1994;DHT22;998;49.906;10.908;2024-03-08T03:15:32;3.40;99.90
1994;DHT22;998;49.906;10.908;2024-03-08T03:18:00;3.30;99.90
1994;DHT22;998;49.906;10.908;2024-03-08T03:20:28;3.30;99.90
1994;DHT22;998;49.906;10.908;2024-03-08T03:22:58;3.30;99.90
1994;DHT22;998;49.906;10.908;2024-03-08T03:25:27;3.20;99.90
1994;DHT22;998;49.906;10.908;2024-03-08T03:28:00;3.20;99.90
1994;DHT22;998;49.906;10.908;2024-03-08T03:30:29;3.10;99.90
1994;DHT22;998;49.906;10.908;2024-03-08T03:32:59;3.20;99.90
1994;DHT22;998;49.906;10.908;2024-03-08T03:35:27;3.10;99.90
1994;DHT22;998;49.906;10.908;2024-03-08T03:37:55;3.20;99.90
1994;DHT22;998;49.906;10.908;2024-03-08T03:40:32;3.20;99.90
1994;DHT22;998;49.906;10.908;2024-03-08T03:43:00;3.20;99.90
1994;DHT22;998;49.906;10.908;2024-03-08T03:45:30;3.20;99.90
1994;DHT22;998;49.906;10.908;2024-03-08T03:48:02;3.20;99.90
1994;DHT22;998;49.906;10.908;2024-03-08T03:50:29;3.20;99.90
1994;DHT22;998;49.906;10.908;2024-03-08T03:53:00;3.20;99.90
1994;DHT22;998;49.906;10.908;2024-03-08T03:55:28;3.20;99.90
1994;DHT22;998;49.906;10.908;2024-03-08T03:57:55;3.10;99.90
1994;DHT22;998;49.906;10.908;2024-03-08T04:00:28;3.10;99.90
1994;DHT22;998;49.906;10.908;2024-03-08T04:02:56;3.40;99.90
1994;DHT22;998;49.906;10.908;2024-03-08T04:05:26;3.00;99.90
1994;DHT22;998;49.906;10.908;2024-03-08T04:07:53;3.00;99.90
1994;DHT22;998;49.906;10.908;2024-03-08T04:10:21;3.00;99.90
1994;DHT22;998;49.906;10.908;2024-03-08T04:12:48;3.00;99.90
1994;DHT22;998;49.906;10.908;2024-03-08T04:15:16;3.10;99.90
1994;DHT22;998;49.906;10.908;2024-03-08T04:17:45;3.10;99.90
1994;DHT22;998;49.906;10.908;2024-03-08T04:20:12;3.20;99.90
1994;DHT22;998;49.906;10.908;2024-03-08T04:22:40;3.00;99.90
1994;DHT22;998;49.906;10.908;2024-03-08T04:25:09;3.20;99.90
1994;DHT22;998;49.906;10.908;2024-03-08T04:27:36;3.20;99.90
1994;DHT22;998;49.906;10.908;2024-03-08T04:30:04;3.10;99.90
1994;DHT22;998;49.906;10.908;2024-03-08T04:32:33;3.10;99.90
1994;DHT22;998;49.906;10.908;2024-03-08T04:35:02;3.20;99.90
1994;DHT22;998;49.906;10.908;2024-03-08T04:37:30;3.00;99.90
1994;DHT22;998;49.906;10.908;2024-03-08T04:39:57;3.00;99.90
1994;DHT22;998;49.906;10.908;2024-03-08T04:42:25;2.90;99.90
1994;DHT22;998;49.906;10.908;2024-03-08T04:44:54;2.90;99.90
1994;DHT22;998;49.906;10.908;2024-03-08T04:47:26;2.90;99.90
1994;DHT22;998;49.906;10.908;2024-03-08T04:50:09;2.80;99.90
1994;DHT22;998;49.906;10.908;2024-03-08T04:52:39;2.80;99.90
1994;DHT22;998;49.906;10.908;2024-03-08T04:55:14;3.00;99.90
1994;DHT22;998;49.906;10.908;2024-03-08T04:57:41;2.70;99.90
1994;DHT22;998;49.906;10.908;2024-03-08T05:00:12;2.70;99.90
1994;DHT22;998;49.906;10.908;2024-03-08T05:02:40;2.40;99.90
1994;DHT22;998;49.906;10.908;2024-03-08T05:05:09;2.60;99.90
1994;DHT22;998;49.906;10.908;2024-03-08T05:07:38;2.60;99.90
1994;DHT22;998;49.906;10.908;2024-03-08T05:10:07;2.60;99.90
1994;DHT22;998;49.906;10.908;2024-03-08T05:12:35;2.50;99.90
1994;DHT22;998;49.906;10.908;2024-03-08T05:15:05;2.60;99.90
1994;DHT22;998;49.906;10.908;2024-03-08T05:17:33;2.60;99.90
1994;DHT22;998;49.906;10.908;2024-03-08T05:20:00;2.50;99.90
1994;DHT22;998;49.906;10.908;2024-03-08T05:22:29;2.50;99.90
1994;DHT22;998;49.906;10.908;2024-03-08T05:24:56;2.60;99.90
1994;DHT22;998;49.906;10.908;2024-03-08T05:27:24;2.70;99.90
1994;DHT22;998;49.906;10.908;2024-03-08T05:29:51;2.80;99.90
1994;DHT22;998;49.906;10.908;2024-03-08T05:32:19;2.80;99.90
1994;DHT22;998;49.906;10.908;2024-03-08T05:34:46;2.80;99.90
1994;DHT22;998;49.906;10.908;2024-03-08T05:37:13;2.70;99.90
1994;DHT22;998;49.906;10.908;2024-03-08T05:39:43;2.80;99.90
1994;DHT22;998;49.906;10.908;2024-03-08T05:42:10;2.80;99.90
1994;DHT22;998;49.906;10.908;2024-03-08T05:44:37;2.70;99.90
1994;DHT22;998;49.906;10.908;2024-03-08T05:47:06;2.80;99.90
1994;DHT22;998;49.906;10.908;2024-03-08T05:49:34;2.80;99.90
1994;DHT22;998;49.906;10.908;2024-03-08T05:52:01;2.80;99.90
1994;DHT22;998;49.906;10.908;2024-03-08T05:54:28;2.80;99.90
1994;DHT22;998;49.906;10.908;2024-03-08T05:56:57;2.90;99.90
1994;DHT22;998;49.906;10.908;2024-03-08T05:59:25;2.90;99.90
1994;DHT22;998;49.906;10.908;2024-03-08T06:01:52;3.00;99.90
1994;DHT22;998;49.906;10.908;2024-03-08T06:04:20;2.80;99.90
1994;DHT22;998;49.906;10.908;2024-03-08T06:06:47;3.00;99.90
1994;DHT22;998;49.906;10.908;2024-03-08T06:09:17;3.20;99.90
1994;DHT22;998;49.906;10.908;2024-03-08T06:11:48;3.00;99.90
1994;DHT22;998;49.906;10.908;2024-03-08T06:14:17;3.00;99.90
1994;DHT22;998;49.906;10.908;2024-03-08T06:16:45;3.00;99.90
1994;DHT22;998;49.906;10.908;2024-03-08T06:19:13;3.10;99.90
1994;DHT22;998;49.906;10.908;2024-03-08T06:21:41;3.10;99.90
1994;DHT22;998;49.906;10.908;2024-03-08T06:24:09;3.10;99.90
1994;DHT22;998;49.906;10.908;2024-03-08T06:26:36;3.10;99.90
1994;DHT22;998;49.906;10.908;2024-03-08T06:29:04;3.20;99.90
1994;DHT22;998;49.906;10.908;2024-03-08T06:31:34;3.10;99.90
1994;DHT22;998;49.906;10.908;2024-03-08T06:34:04;3.20;99.90
1994;DHT22;998;49.906;10.908;2024-03-08T06:36:33;3.20;99.90
1994;DHT22;998;49.906;10.908;2024-03-08T06:39:03;3.20;99.90
1994;DHT22;998;49.906;10.908;2024-03-08T06:41:35;3.20;99.90
1994;DHT22;998;49.906;10.908;2024-03-08T06:44:03;3.20;99.90
1994;DHT22;998;49.906;10.908;2024-03-08T06:46:31;3.20;99.90
1994;DHT22;998;49.906;10.908;2024-03-08T06:48:59;3.20;99.90
1994;DHT22;998;49.906;10.908;2024-03-08T06:51:28;3.30;99.90
1994;DHT22;998;49.906;10.908;2024-03-08T06:53:56;3.30;99.90
1994;DHT22;998;49.906;10.908;2024-03-08T06:56:24;3.30;99.90
1994;DHT22;998;49.906;10.908;2024-03-08T06:58:51;3.10;99.90
1994;DHT22;998;49.906;10.908;2024-03-08T07:01:19;3.40;99.90
1994;DHT22;998;49.906;10.908;2024-03-08T07:03:47;3.40;99.90
1994;DHT22;998;49.906;10.908;2024-03-08T07:06:15;3.50;99.90
1994;DHT22;998;49.906;10.908;2024-03-08T07:08:44;3.50;99.90
1994;DHT22;998;49.906;10.908;2024-03-08T07:11:12;3.50;99.90
1994;DHT22;998;49.906;10.908;2024-03-08T07:13:44;3.50;99.90
1994;DHT22;998;49.906;10.908;2024-03-08T07:16:11;3.60;99.90
1994;DHT22;998;49.906;10.908;2024-03-08T07:18:39;3.60;99.90
1994;DHT22;998;49.906;10.908;2024-03-08T07:21:09;3.50;99.90
1994;DHT22;998;49.906;10.908;2024-03-08T07:23:38;3.50;99.90
1994;DHT22;998;49.906;10.908;2024-03-08T07:26:28;3.60;99.90
1994;DHT22;998;49.906;10.908;2024-03-08T07:28:57;3.70;99.90
1994;DHT22;998;49.906;10.908;2024-03-08T07:31:26;3.70;99.90
1994;DHT22;998;49.906;10.908;2024-03-08T07:34:04;3.80;99.90
1994;DHT22;998;49.906;10.908;2024-03-08T07:36:33;3.60;99.90
1994;DHT22;998;49.906;10.908;2024-03-08T07:39:02;3.80;99.90
1994;DHT22;998;49.906;10.908;2024-03-08T07:41:31;3.80;99.90
1994;DHT22;998;49.906;10.908;2024-03-08T07:44:02;3.90;99.90
1994;DHT22;998;49.906;10.908;2024-03-08T07:46:29;3.80;99.90
1994;DHT22;998;49.906;10.908;2024-03-08T07:48:57;4.00;99.90
1994;DHT22;998;49.906;10.908;2024-03-08T07:51:24;4.00;99.90
1994;DHT22;998;49.906;10.908;2024-03-08T07:53:51;4.20;99.90
1994;DHT22;998;49.906;10.908;2024-03-08T07:56:20;4.00;99.90
1994;DHT22;998;49.906;10.908;2024-03-08T07:58:48;4.10;99.90
1994;DHT22;998;49.906;10.908;2024-03-08T08:01:18;4.40;99.90
1994;DHT22;998;49.906;10.908;2024-03-08T08:03:46;4.20;99.90
1994;DHT22;998;49.906;10.908;2024-03-08T08:06:15;4.20;99.90
1994;DHT22;998;49.906;10.908;2024-03-08T08:08:44;4.30;99.90
1994;DHT22;998;49.906;10.908;2024-03-08T08:11:11;4.70;99.90
1994;DHT22;998;49.906;10.908;2024-03-08T08:13:40;4.30;99.90
1994;DHT22;998;49.906;10.908;2024-03-08T08:16:09;4.40;99.90
1994;DHT22;998;49.906;10.908;2024-03-08T08:18:36;4.40;99.90
1994;DHT22;998;49.906;10.908;2024-03-08T08:21:07;4.50;99.90
1994;DHT22;998;49.906;10.908;2024-03-08T08:23:34;5.00;99.90
1994;DHT22;998;49.906;10.908;2024-03-08T08:26:02;4.50;99.90
1994;DHT22;998;49.906;10.908;2024-03-08T08:28:30;4.70;99.90
1994;DHT22;998;49.906;10.908;2024-03-08T08:30:59;4.60;99.90
1994;DHT22;998;49.906;10.908;2024-03-08T08:33:27;5.00;99.90
1994;DHT22;998;49.906;10.908;2024-03-08T08:35:54;4.80;99.90
1994;DHT22;998;49.906;10.908;2024-03-08T08:38:22;4.80;99.90
1994;DHT22;998;49.906;10.908;2024-03-08T08:40:50;4.90;99.90
1994;DHT22;998;49.906;10.908;2024-03-08T08:43:18;4.90;99.90
1994;DHT22;998;49.906;10.908;2024-03-08T08:45:47;4.90;99.90
1994;DHT22;998;49.906;10.908;2024-03-08T08:48:18;4.80;99.90
1994;DHT22;998;49.906;10.908;2024-03-08T08:50:45;4.90;99.90
1994;DHT22;998;49.906;10.908;2024-03-08T08:53:12;5.10;99.90
1994;DHT22;998;49.906;10.908;2024-03-08T08:55:40;5.20;99.90
1994;DHT22;998;49.906;10.908;2024-03-08T08:58:08;5.10;99.90
1994;DHT22;998;49.906;10.908;2024-03-08T09:00:35;5.10;99.90
1994;DHT22;998;49.906;10.908;2024-03-08T09:03:03;5.30;99.90
1994;DHT22;998;49.906;10.908;2024-03-08T09:05:46;5.40;99.90
1994;DHT22;998;49.906;10.908;2024-03-08T09:08:22;5.50;99.90
1994;DHT22;998;49.906;10.908;2024-03-08T09:10:53;5.50;99.90
1994;DHT22;998;49.906;10.908;2024-03-08T09:13:20;5.90;99.90
1994;DHT22;998;49.906;10.908;2024-03-08T09:15:48;5.60;99.90
1994;DHT22;998;49.906;10.908;2024-03-08T09:18:16;5.70;99.90
1994;DHT22;998;49.906;10.908;2024-03-08T09:20:43;5.70;99.90
1994;DHT22;998;49.906;10.908;2024-03-08T09:23:12;5.80;99.90
1994;DHT22;998;49.906;10.908;2024-03-08T09:25:40;5.80;99.90
1994;DHT22;998;49.906;10.908;2024-03-08T09:28:08;5.90;99.90
1994;DHT22;998;49.906;10.908;2024-03-08T09:30:37;5.90;99.90
1994;DHT22;998;49.906;10.908;2024-03-08T09:33:05;5.80;99.90
1994;DHT22;998;49.906;10.908;2024-03-08T09:35:33;6.10;99.90
1994;DHT22;998;49.906;10.908;2024-03-08T09:38:00;6.00;99.90
1994;DHT22;998;49.906;10.908;2024-03-08T09:40:30;6.10;99.90
1994;DHT22;998;49.906;10.908;2024-03-08T09:42:58;6.20;99.90
1994;DHT22;998;49.906;10.908;2024-03-08T09:45:26;6.30;99.90
1994;DHT22;998;49.906;10.908;2024-03-08T09:47:58;6.30;99.90
1994;DHT22;998;49.906;10.908;2024-03-08T09:50:25;6.70;99.90
1994;DHT22;998;49.906;10.908;2024-03-08T09:52:53;6.30;99.90
1994;DHT22;998;49.906;10.908;2024-03-08T09:55:23;6.30;99.90
1994;DHT22;998;49.906;10.908;2024-03-08T09:57:54;6.50;99.90
1994;DHT22;998;49.906;10.908;2024-03-08T10:00:41;6.40;99.90
1994;DHT22;998;49.906;10.908;2024-03-08T10:03:08;6.40;99.90
1994;DHT22;998;49.906;10.908;2024-03-08T10:05:36;6.70;99.90
1994;DHT22;998;49.906;10.908;2024-03-08T10:08:04;7.20;99.90
1994;DHT22;998;49.906;10.908;2024-03-08T10:10:33;6.80;99.90
1994;DHT22;998;49.906;10.908;2024-03-08T10:13:06;7.00;99.90
1994;DHT22;998;49.906;10.908;2024-03-08T10:15:33;6.90;99.90
1994;DHT22;998;49.906;10.908;2024-03-08T10:18:01;6.90;99.90
1994;DHT22;998;49.906;10.908;2024-03-08T10:20:30;7.30;99.90
1994;DHT22;998;49.906;10.908;2024-03-08T10:22:59;7.00;99.90
1994;DHT22;998;49.906;10.908;2024-03-08T10:25:29;7.00;99.90
1994;DHT22;998;49.906;10.908;2024-03-08T10:27:57;7.00;99.90
1994;DHT22;998;49.906;10.908;2024-03-08T10:30:26;7.40;99.90
1994;DHT22;998;49.906;10.908;2024-03-08T10:32:53;7.40;99.90
1994;DHT22;998;49.906;10.908;2024-03-08T10:35:21;7.50;99.90
1994;DHT22;998;49.906;10.908;2024-03-08T10:37:49;7.60;99.90
1994;DHT22;998;49.906;10.908;2024-03-08T10:40:25;7.80;99.90
1994;DHT22;998;49.906;10.908;2024-03-08T10:42:53;7.80;99.90
1994;DHT22;998;49.906;10.908;2024-03-08T10:45:30;7.90;99.90
1994;DHT22;998;49.906;10.908;2024-03-08T10:48:12;8.10;99.90
1994;DHT22;998;49.906;10.908;2024-03-08T10:50:45;8.20;99.90
1994;DHT22;998;49.906;10.908;2024-03-08T10:53:15;8.30;99.90
1994;DHT22;998;49.906;10.908;2024-03-08T10:55:46;8.40;99.90
1994;DHT22;998;49.906;10.908;2024-03-08T10:58:14;8.50;99.90
1994;DHT22;998;49.906;10.908;2024-03-08T11:00:43;8.60;99.90
1994;DHT22;998;49.906;10.908;2024-03-08T11:06:08;9.00;99.90
1994;DHT22;998;49.906;10.908;2024-03-08T11:08:36;9.10;99.90
1994;DHT22;998;49.906;10.908;2024-03-08T11:11:05;9.10;99.90
1994;DHT22;998;49.906;10.908;2024-03-08T11:13:36;9.40;99.90
1994;DHT22;998;49.906;10.908;2024-03-08T11:16:09;9.40;99.90
1994;DHT22;998;49.906;10.908;2024-03-08T11:18:37;9.60;99.90
1994;DHT22;998;49.906;10.908;2024-03-08T11:21:07;9.70;99.90
1994;DHT22;998;49.906;10.908;2024-03-08T11:23:38;10.00;99.90
1994;DHT22;998;49.906;10.908;2024-03-08T11:26:17;10.30;99.90
1994;DHT22;998;49.906;10.908;2024-03-08T11:28:45;10.50;99.90
1994;DHT22;998;49.906;10.908;2024-03-08T11:31:24;10.70;99.90
1994;DHT22;998;49.906;10.908;2024-03-08T11:33:52;11.00;99.90
1994;DHT22;998;49.906;10.908;2024-03-08T11:36:22;11.30;99.90
1994;DHT22;998;49.906;10.908;2024-03-08T11:38:50;11.60;99.90
1994;DHT22;998;49.906;10.908;2024-03-08T11:41:19;11.90;99.90
1994;DHT22;998;49.906;10.908;2024-03-08T11:44:02;12.30;99.90
1994;DHT22;998;49.906;10.908;2024-03-08T11:46:32;12.70;99.90
1994;DHT22;998;49.906;10.908;2024-03-08T11:49:02;13.10;99.90
1994;DHT22;998;49.906;10.908;2024-03-08T11:51:29;12.90;99.90
1994;DHT22;998;49.906;10.908;2024-03-08T11:53:57;12.90;99.90
1994;DHT22;998;49.906;10.908;2024-03-08T11:56:25;13.40;99.90
1994;DHT22;998;49.906;10.908;2024-03-08T11:58:54;13.70;99.90
1994;DHT22;998;49.906;10.908;2024-03-08T12:01:23;13.90;99.40
1994;DHT22;998;49.906;10.908;2024-03-08T12:03:55;14.70;96.50
1994;DHT22;998;49.906;10.908;2024-03-08T12:06:24;14.00;97.60
1994;DHT22;998;49.906;10.908;2024-03-08T12:08:51;13.80;95.30
1994;DHT22;998;49.906;10.908;2024-03-08T12:11:19;14.00;95.30
1994;DHT22;998;49.906;10.908;2024-03-08T12:13:49;14.10;96.10
1994;DHT22;998;49.906;10.908;2024-03-08T12:16:17;14.30;96.40
1994;DHT22;998;49.906;10.908;2024-03-08T12:18:45;14.40;96.00
1994;DHT22;998;49.906;10.908;2024-03-08T12:21:15;14.70;95.40
1994;DHT22;998;49.906;10.908;2024-03-08T12:23:46;15.10;95.50
1994;DHT22;998;49.906;10.908;2024-03-08T12:26:17;15.30;93.90
1994;DHT22;998;49.906;10.908;2024-03-08T12:28:45;15.30;92.10
1994;DHT22;998;49.906;10.908;2024-03-08T12:31:14;15.30;91.50
1994;DHT22;998;49.906;10.908;2024-03-08T12:33:49;15.10;91.10
1994;DHT22;998;49.906;10.908;2024-03-08T12:36:19;15.10;91.30
1994;DHT22;998;49.906;10.908;2024-03-08T12:38:47;15.50;90.00
1994;DHT22;998;49.906;10.908;2024-03-08T12:41:15;15.50;90.90
1994;DHT22;998;49.906;10.908;2024-03-08T12:43:43;15.40;90.30
1994;DHT22;998;49.906;10.908;2024-03-08T12:46:14;15.70;89.70
1994;DHT22;998;49.906;10.908;2024-03-08T12:48:42;15.80;87.10
1994;DHT22;998;49.906;10.908;2024-03-08T12:51:12;15.60;87.90
1994;DHT22;998;49.906;10.908;2024-03-08T12:53:43;15.60;85.40
1994;DHT22;998;49.906;10.908;2024-03-08T12:56:11;15.60;88.80
1994;DHT22;998;49.906;10.908;2024-03-08T12:58:39;15.60;84.50
1994;DHT22;998;49.906;10.908;2024-03-08T13:01:06;15.70;86.10
1994;DHT22;998;49.906;10.908;2024-03-08T13:03:34;15.90;83.20
1994;DHT22;998;49.906;10.908;2024-03-08T13:06:03;15.90;81.10
1994;DHT22;998;49.906;10.908;2024-03-08T13:08:34;15.80;83.20
1994;DHT22;998;49.906;10.908;2024-03-08T13:11:03;15.80;82.00
1994;DHT22;998;49.906;10.908;2024-03-08T13:13:31;15.90;78.60
1994;DHT22;998;49.906;10.908;2024-03-08T13:16:03;16.10;81.60
1994;DHT22;998;49.906;10.908;2024-03-08T13:18:33;16.30;82.10
1994;DHT22;998;49.906;10.908;2024-03-08T13:21:01;16.30;78.70
1994;DHT22;998;49.906;10.908;2024-03-08T13:23:32;16.10;78.00
1994;DHT22;998;49.906;10.908;2024-03-08T13:25:59;16.40;82.80
1994;DHT22;998;49.906;10.908;2024-03-08T13:28:29;16.40;79.80
1994;DHT22;998;49.906;10.908;2024-03-08T13:31:07;16.20;78.70
1994;DHT22;998;49.906;10.908;2024-03-08T13:33:38;16.50;77.50
1994;DHT22;998;49.906;10.908;2024-03-08T13:36:07;16.40;77.20
1994;DHT22;998;49.906;10.908;2024-03-08T13:38:41;16.20;78.60
1994;DHT22;998;49.906;10.908;2024-03-08T13:41:10;16.20;75.80
1994;DHT22;998;49.906;10.908;2024-03-08T13:43:41;16.20;76.80
1994;DHT22;998;49.906;10.908;2024-03-08T13:46:09;16.30;78.00
1994;DHT22;998;49.906;10.908;2024-03-08T13:48:36;16.40;78.20
1994;DHT22;998;49.906;10.908;2024-03-08T13:51:05;16.40;75.70
1994;DHT22;998;49.906;10.908;2024-03-08T13:53:33;16.50;77.40
1994;DHT22;998;49.906;10.908;2024-03-08T13:56:00;16.60;77.10
1994;DHT22;998;49.906;10.908;2024-03-08T13:58:28;16.40;78.00
1994;DHT22;998;49.906;10.908;2024-03-08T14:00:57;16.30;76.30
1994;DHT22;998;49.906;10.908;2024-03-08T14:03:26;16.30;76.60
1994;DHT22;998;49.906;10.908;2024-03-08T14:05:53;16.20;77.80
1994;DHT22;998;49.906;10.908;2024-03-08T14:08:21;16.20;75.30
1994;DHT22;998;49.906;10.908;2024-03-08T14:10:48;15.80;76.10
1994;DHT22;998;49.906;10.908;2024-03-08T14:13:18;15.70;77.40
1994;DHT22;998;49.906;10.908;2024-03-08T14:15:46;15.80;77.90
1994;DHT22;998;49.906;10.908;2024-03-08T14:18:15;16.00;77.80
1994;DHT22;998;49.906;10.908;2024-03-08T14:20:43;16.10;78.10
1994;DHT22;998;49.906;10.908;2024-03-08T14:23:10;16.20;78.20
1994;DHT22;998;49.906;10.908;2024-03-08T14:25:38;16.20;79.00
1994;DHT22;998;49.906;10.908;2024-03-08T14:28:05;16.30;76.10
1994;DHT22;998;49.906;10.908;2024-03-08T14:30:34;16.00;73.90
1994;DHT22;998;49.906;10.908;2024-03-08T14:33:04;16.10;73.90
1994;DHT22;998;49.906;10.908;2024-03-08T14:35:36;16.20;75.50
1994;DHT22;998;49.906;10.908;2024-03-08T14:38:04;16.40;76.60
1994;DHT22;998;49.906;10.908;2024-03-08T14:40:36;15.90;76.40
1994;DHT22;998;49.906;10.908;2024-03-08T14:43:04;15.80;76.80
1994;DHT22;998;49.906;10.908;2024-03-08T14:45:31;15.60;74.80
1994;DHT22;998;49.906;10.908;2024-03-08T14:47:58;15.40;75.30
1994;DHT22;998;49.906;10.908;2024-03-08T14:50:27;15.20;75.40
1994;DHT22;998;49.906;10.908;2024-03-08T14:52:56;14.90;75.00
1994;DHT22;998;49.906;10.908;2024-03-08T14:55:24;15.00;75.80
1994;DHT22;998;49.906;10.908;2024-03-08T14:57:51;15.10;75.80
1994;DHT22;998;49.906;10.908;2024-03-08T15:00:20;15.20;76.10
1994;DHT22;998;49.906;10.908;2024-03-08T15:02:59;15.40;77.50
1994;DHT22;998;49.906;10.908;2024-03-08T15:05:28;15.50;78.10
1994;DHT22;998;49.906;10.908;2024-03-08T15:07:59;15.30;76.00
1994;DHT22;998;49.906;10.908;2024-03-08T15:10:28;15.20;76.10
1994;DHT22;998;49.906;10.908;2024-03-08T15:12:59;15.30;76.40
1994;DHT22;998;49.906;10.908;2024-03-08T15:15:28;15.30;75.40
1994;DHT22;998;49.906;10.908;2024-03-08T15:17:56;15.30;74.50
1994;DHT22;998;49.906;10.908;2024-03-08T15:20:24;15.00;75.60
1994;DHT22;998;49.906;10.908;2024-03-08T15:22:54;15.00;75.90
1994;DHT22;998;49.906;10.908;2024-03-08T15:25:26;14.90;77.60
1994;DHT22;998;49.906;10.908;2024-03-08T15:27:55;15.10;77.30
1994;DHT22;998;49.906;10.908;2024-03-08T15:30:24;14.80;76.00
1994;DHT22;998;49.906;10.908;2024-03-08T15:32:52;14.60;76.70
1994;DHT22;998;49.906;10.908;2024-03-08T15:35:22;14.70;78.00
1994;DHT22;998;49.906;10.908;2024-03-08T15:37:51;14.50;77.00
1994;DHT22;998;49.906;10.908;2024-03-08T15:40:21;14.30;77.00
1994;DHT22;998;49.906;10.908;2024-03-08T15:42:55;14.20;77.40
1994;DHT22;998;49.906;10.908;2024-03-08T15:45:23;14.10;78.20
1994;DHT22;998;49.906;10.908;2024-03-08T15:47:56;14.30;78.20
1994;DHT22;998;49.906;10.908;2024-03-08T15:50:24;14.20;78.30
1994;DHT22;998;49.906;10.908;2024-03-08T15:52:51;14.10;77.80
1994;DHT22;998;49.906;10.908;2024-03-08T15:55:20;14.00;79.20
1994;DHT22;998;49.906;10.908;2024-03-08T15:57:51;14.10;79.30
1994;DHT22;998;49.906;10.908;2024-03-08T16:00:21;14.20;80.40
1994;DHT22;998;49.906;10.908;2024-03-08T16:02:59;14.20;81.30
1994;DHT22;998;49.906;10.908;2024-03-08T16:05:28;14.20;78.80
1994;DHT22;998;49.906;10.908;2024-03-08T16:07:56;14.10;78.20
1994;DHT22;998;49.906;10.908;2024-03-08T16:10:25;13.90;79.40
1994;DHT22;998;49.906;10.908;2024-03-08T16:12:55;14.60;80.20
1994;DHT22;998;49.906;10.908;2024-03-08T16:15:22;13.90;80.30
1994;DHT22;998;49.906;10.908;2024-03-08T16:17:51;13.80;78.90
1994;DHT22;998;49.906;10.908;2024-03-08T16:20:19;13.90;79.50
1994;DHT22;998;49.906;10.908;2024-03-08T16:22:49;14.00;80.10
1994;DHT22;998;49.906;10.908;2024-03-08T16:25:17;13.90;78.80